createdAt,value
2023-04-13T00:01:03.298Z,4.10
2023-04-13T00:03:33.188Z,2.15
2023-04-13T00:06:02.877Z,3.95
2023-04-13T00:08:31.723Z,3.25
2023-04-13T00:10:59.743Z,6.80
2023-04-13T00:13:27.105Z,2.60
2023-04-13T00:15:55.722Z,3.10
2023-04-13T00:18:23.896Z,2.40
2023-04-13T00:20:51.228Z,2.80
2023-04-13T00:23:18.805Z,4.03
2023-04-13T00:25:47.466Z,3.53
2023-04-13T00:28:16.612Z,4.15
2023-04-13T00:30:43.955Z,2.05
2023-04-13T00:33:11.360Z,3.55
2023-04-13T00:35:39.947Z,1.60
2023-04-13T00:38:07.286Z,3.70
2023-04-13T00:40:37.548Z,2.05
2023-04-13T00:43:06.511Z,1.80
2023-04-13T00:45:38.814Z,4.72
2023-04-13T00:48:06.647Z,2.33
2023-04-13T00:50:35.012Z,3.83
2023-04-13T00:53:02.580Z,3.13
2023-04-13T00:55:29.925Z,2.30
2023-04-13T00:57:59.365Z,4.07
2023-04-13T01:00:28.105Z,1.40
2023-04-13T01:02:55.711Z,1.02
2023-04-13T01:05:25.436Z,0.60
2023-04-13T01:07:57.084Z,3.25
2023-04-13T01:10:27.550Z,1.98
2023-04-13T01:12:58.394Z,2.67
2023-04-13T01:15:27.315Z,2.05
2023-04-13T01:17:58.279Z,2.80
2023-04-13T01:20:27.246Z,2.38
2023-04-13T01:22:55.514Z,3.50
2023-04-13T01:25:28.466Z,2.20
2023-04-13T01:27:59.628Z,1.80
2023-04-13T01:30:28.394Z,3.83
2023-04-13T01:32:56.267Z,4.60
2023-04-13T01:35:25.377Z,2.58
2023-04-13T01:37:53.495Z,1.95
2023-04-13T01:40:21.110Z,5.05
2023-04-13T01:42:48.398Z,1.92
2023-04-13T01:45:18.572Z,3.35
2023-04-13T01:47:49.495Z,2.33
2023-04-13T01:50:25.502Z,1.70
2023-04-13T01:52:53.450Z,2.00
2023-04-13T01:55:22.766Z,2.03
2023-04-13T01:57:51.654Z,1.92
2023-04-13T02:00:20.596Z,1.75
2023-04-13T02:02:49.042Z,2.55
2023-04-13T02:05:16.733Z,1.95
2023-04-13T02:07:44.682Z,2.17
2023-04-13T02:10:12.410Z,3.83
2023-04-13T02:12:39.742Z,2.47
2023-04-13T02:15:07.580Z,3.22
2023-04-13T02:17:36.739Z,0.68
2023-04-13T02:20:11.021Z,3.75
2023-04-13T02:22:39.334Z,1.08
2023-04-13T02:25:08.401Z,3.40
2023-04-13T02:27:36.155Z,2.53
2023-04-13T02:30:03.611Z,2.70
2023-04-13T02:32:31.498Z,4.57
2023-04-13T02:35:00.817Z,1.80
2023-04-13T02:37:29.375Z,2.35
2023-04-13T02:39:56.898Z,2.00
2023-04-13T02:42:24.228Z,1.40
2023-04-13T02:44:51.817Z,0.93
2023-04-13T02:47:19.143Z,1.95
2023-04-13T02:49:47.086Z,3.55
2023-04-13T02:52:15.837Z,1.33
2023-04-13T02:54:43.952Z,1.98
2023-04-13T02:57:13.499Z,5.97
2023-04-13T02:59:41.198Z,3.22
2023-04-13T03:02:08.578Z,0.63
2023-04-13T03:04:35.980Z,0.75
2023-04-13T03:07:05.118Z,1.48
2023-04-13T03:09:34.357Z,2.20
2023-04-13T03:12:02.568Z,1.35
2023-04-13T03:14:29.881Z,0.68
2023-04-13T03:16:57.730Z,1.30
2023-04-13T03:19:26.063Z,2.22
2023-04-13T03:21:53.462Z,1.80
2023-04-13T03:24:20.842Z,2.83
2023-04-13T03:26:49.696Z,1.40
2023-04-13T03:29:17.042Z,1.27
2023-04-13T03:31:44.476Z,2.20
2023-04-13T03:34:12.077Z,5.15
2023-04-13T03:36:39.426Z,0.88
2023-04-13T03:39:06.926Z,1.42
2023-04-13T03:41:34.273Z,2.95
2023-04-13T03:44:02.932Z,2.85
2023-04-13T03:46:31.954Z,0.80
2023-04-13T03:48:59.338Z,1.35
2023-04-13T03:51:27.670Z,1.17
2023-04-13T03:53:55.012Z,1.08
2023-04-13T03:56:22.286Z,1.92
2023-04-13T03:58:49.699Z,2.72
2023-04-13T04:01:18.366Z,1.90
2023-04-13T04:03:45.961Z,1.88
2023-04-13T04:06:13.330Z,2.92
2023-04-13T04:08:40.996Z,2.85
2023-04-13T04:11:08.308Z,1.15
2023-04-13T04:13:35.670Z,1.20
2023-04-13T04:16:04.506Z,1.38
2023-04-13T04:18:33.396Z,2.03
2023-04-13T04:21:02.588Z,3.45
2023-04-13T04:23:30.020Z,1.17
2023-04-13T04:25:59.277Z,1.13
2023-04-13T04:28:26.676Z,0.88
2023-04-13T04:30:55.899Z,0.32
2023-04-13T04:33:23.524Z,1.05
2023-04-13T04:35:52.494Z,1.23
2023-04-13T04:38:19.789Z,0.60
2023-04-13T04:40:47.081Z,0.75
2023-04-13T04:43:14.623Z,0.98
2023-04-13T04:45:43.401Z,3.63
2023-04-13T04:48:11.700Z,1.75
2023-04-13T04:50:40.025Z,0.77
2023-04-13T04:53:08.731Z,0.98
2023-04-13T04:55:35.996Z,2.83
2023-04-13T04:58:03.476Z,3.22
2023-04-13T05:00:31.459Z,3.15
2023-04-13T05:03:00.834Z,2.22
2023-04-13T05:05:29.766Z,0.73
2023-04-13T05:07:57.135Z,6.22
2023-04-13T05:10:28.152Z,1.08
2023-04-13T05:12:56.125Z,0.85
2023-04-13T05:15:23.635Z,1.40
2023-04-13T05:17:51.062Z,0.88
2023-04-13T05:20:19.171Z,2.03
2023-04-13T05:22:46.487Z,2.05
2023-04-13T05:25:14.490Z,0.63
2023-04-13T05:27:43.171Z,0.88
2023-04-13T05:30:10.716Z,2.65
2023-04-13T05:32:38.034Z,2.28
2023-04-13T05:35:05.729Z,1.00
2023-04-13T05:37:33.003Z,0.63
2023-04-13T05:40:00.339Z,1.13
2023-04-13T05:42:27.637Z,1.35
2023-04-13T05:44:56.275Z,0.93
2023-04-13T05:47:24.186Z,2.95
2023-04-13T05:49:52.193Z,0.77
2023-04-13T05:52:19.555Z,2.47
2023-04-13T05:54:46.913Z,2.15
2023-04-13T05:57:14.255Z,0.90
2023-04-13T05:59:41.771Z,0.40
2023-04-13T06:02:10.557Z,0.65
2023-04-13T06:04:38.034Z,1.92
2023-04-13T06:07:05.721Z,1.73
2023-04-13T06:09:33.066Z,1.13
2023-04-13T06:12:00.358Z,2.05
2023-04-13T06:14:27.780Z,1.90
2023-04-13T06:16:55.241Z,1.13
2023-04-13T06:19:25.902Z,2.50
2023-04-13T06:21:54.918Z,3.30
2023-04-13T06:24:22.250Z,1.30
2023-04-13T06:26:49.627Z,1.60
2023-04-13T06:29:16.930Z,2.60
2023-04-13T06:31:44.227Z,2.35
2023-04-13T06:34:11.530Z,1.05
2023-04-13T06:36:40.406Z,2.85
2023-04-13T06:39:09.308Z,0.50
2023-04-13T06:41:37.204Z,0.50
2023-04-13T06:44:04.943Z,1.42
2023-04-13T06:46:32.275Z,0.88
2023-04-13T06:48:59.791Z,1.65
2023-04-13T06:51:27.867Z,1.23
2023-04-13T06:53:56.524Z,0.88
2023-04-13T06:56:24.103Z,0.52
2023-04-13T06:58:51.424Z,0.63
2023-04-13T07:01:18.780Z,1.98
2023-04-13T07:03:46.358Z,1.85
2023-04-13T07:06:13.774Z,0.63
2023-04-13T07:08:41.160Z,0.60
2023-04-13T07:11:10.107Z,1.75
2023-04-13T07:13:37.453Z,1.98
2023-04-13T07:16:05.053Z,1.23
2023-04-13T07:18:32.482Z,1.63
2023-04-13T07:20:59.819Z,1.70
2023-04-13T07:23:27.305Z,1.60
2023-04-13T07:25:54.609Z,1.73
2023-04-13T07:28:23.295Z,1.00
2023-04-13T07:30:50.734Z,1.10
2023-04-13T07:33:18.056Z,1.38
2023-04-13T07:35:45.389Z,2.35
2023-04-13T07:38:12.671Z,4.55
2023-04-13T07:40:39.941Z,2.60
2023-04-13T07:43:07.226Z,2.50
2023-04-13T07:45:35.929Z,1.35
2023-04-13T07:48:03.470Z,2.58
2023-04-13T07:50:31.106Z,3.97
2023-04-13T07:52:58.445Z,1.45
2023-04-13T07:55:25.760Z,3.35
2023-04-13T07:57:53.072Z,2.13
2023-04-13T08:00:22.760Z,1.13
2023-04-13T08:02:52.126Z,3.17
2023-04-13T08:05:19.632Z,3.33
2023-04-13T08:07:48.890Z,2.58
2023-04-13T08:10:16.346Z,5.38
2023-04-13T08:12:43.652Z,5.88
2023-04-13T08:15:11.242Z,11.35
2023-04-13T08:17:38.835Z,6.15
2023-04-13T08:20:08.900Z,5.70
2023-04-13T08:22:36.745Z,4.55
2023-04-13T08:25:05.393Z,5.15
2023-04-13T08:27:32.783Z,4.38
2023-04-13T08:30:01.963Z,4.70
2023-04-13T08:32:29.517Z,5.85
2023-04-13T08:34:56.987Z,9.85
2023-04-13T08:37:26.328Z,6.20
2023-04-13T08:39:59.436Z,9.70
2023-04-13T08:42:28.997Z,9.55
2023-04-13T08:44:58.282Z,11.20
2023-04-13T08:47:27.154Z,9.05
2023-04-13T08:49:54.584Z,11.82
2023-04-13T08:52:21.934Z,11.85
2023-04-13T08:54:50.880Z,7.63
2023-04-13T08:57:18.721Z,8.23
2023-04-13T08:59:46.074Z,8.23
2023-04-13T09:02:13.485Z,11.02
2023-04-13T09:04:44.037Z,7.50
2023-04-13T09:07:13.999Z,8.10
2023-04-13T09:09:43.827Z,8.68
2023-04-13T09:12:12.502Z,10.93
2023-04-13T09:14:40.027Z,9.60
2023-04-13T09:17:07.597Z,8.68
2023-04-13T09:19:34.950Z,11.63
2023-04-13T09:22:12.681Z,9.45
2023-04-13T09:24:40.495Z,12.32
2023-04-13T09:27:17.700Z,11.90
2023-04-13T09:29:51.478Z,17.88
2023-04-13T09:32:22.588Z,11.90
2023-04-13T09:35:00.072Z,18.55
2023-04-13T09:37:28.187Z,12.95
2023-04-13T09:39:55.563Z,13.20
2023-04-13T09:42:23.658Z,17.92
2023-04-13T09:44:58.915Z,10.82
2023-04-13T09:47:27.135Z,18.08
2023-04-13T09:49:55.412Z,11.50
2023-04-13T09:52:23.803Z,10.82
2023-04-13T09:54:51.897Z,18.17
2023-04-13T09:57:25.670Z,15.15
2023-04-13T09:59:53.287Z,11.95
2023-04-13T10:02:22.657Z,18.92
2023-04-13T10:04:50.509Z,10.60
2023-04-13T10:07:18.074Z,10.50
2023-04-13T10:09:45.347Z,14.38
2023-04-13T10:12:13.656Z,11.52
2023-04-13T10:14:43.135Z,9.75
2023-04-13T10:17:27.701Z,10.75
2023-04-13T10:19:56.300Z,7.15
2023-04-13T10:22:24.170Z,10.15
2023-04-13T10:24:52.022Z,12.32
2023-04-13T10:27:20.324Z,14.00
2023-04-13T10:29:48.526Z,12.60
2023-04-13T10:32:27.335Z,15.73
2023-04-13T10:34:54.936Z,13.68
2023-04-13T10:37:23.216Z,12.80
2023-04-13T10:40:01.343Z,10.10
2023-04-13T10:42:29.590Z,11.80
2023-04-13T10:44:57.620Z,9.93
2023-04-13T10:47:36.879Z,10.05
2023-04-13T10:50:04.651Z,10.93
2023-04-13T10:52:32.411Z,12.52
2023-04-13T10:54:59.823Z,8.30
2023-04-13T10:57:34.423Z,7.35
2023-04-13T11:00:01.748Z,7.38
2023-04-13T11:02:33.034Z,10.02
2023-04-13T11:05:01.126Z,12.88
2023-04-13T11:07:28.809Z,17.58
2023-04-13T11:10:02.866Z,9.02
2023-04-13T11:12:31.019Z,7.45
2023-04-13T11:14:59.685Z,8.10
2023-04-13T11:17:27.518Z,14.15
2023-04-13T11:19:57.363Z,15.45
2023-04-13T11:22:27.719Z,11.70
2023-04-13T11:25:06.160Z,4.82
2023-04-13T11:27:33.459Z,8.52
2023-04-13T11:30:04.830Z,11.65
2023-04-13T11:32:33.060Z,12.50
2023-04-13T11:35:08.139Z,10.73
2023-04-13T11:37:39.417Z,11.15
2023-04-13T11:40:14.683Z,9.23
2023-04-13T11:42:43.270Z,8.32
2023-04-13T11:45:11.409Z,10.32
2023-04-13T11:47:39.274Z,11.07
2023-04-13T11:50:09.410Z,15.77
2023-04-13T11:52:36.927Z,9.02
2023-04-13T11:55:18.917Z,15.52
2023-04-13T11:57:49.767Z,10.70
2023-04-13T12:00:18.934Z,7.75
2023-04-13T12:03:00.073Z,6.97
2023-04-13T12:05:32.460Z,8.30
2023-04-13T12:08:01.301Z,7.22
2023-04-13T12:10:39.346Z,7.47
2023-04-13T12:16:01.793Z,7.07
2023-04-13T12:18:37.472Z,7.82
2023-04-13T12:21:06.948Z,10.85
2023-04-13T12:23:34.427Z,6.47
2023-04-13T12:26:24.389Z,6.88
2023-04-13T12:28:50.367Z,9.50
2023-04-13T12:31:17.674Z,6.40
2023-04-13T12:33:45.082Z,8.00
2023-04-13T12:36:13.798Z,9.02
2023-04-13T12:38:41.131Z,7.18
2023-04-13T12:41:09.408Z,4.72
2023-04-13T12:43:36.723Z,4.43
2023-04-13T12:46:04.103Z,9.13
2023-04-13T12:48:31.419Z,6.68
2023-04-13T12:50:58.819Z,7.32
2023-04-13T12:53:27.478Z,7.93
2023-04-13T12:55:54.797Z,7.18
2023-04-13T12:58:22.070Z,4.60
2023-04-13T13:00:49.462Z,8.68
2023-04-13T13:03:16.924Z,6.93
2023-04-13T13:05:44.297Z,8.73
2023-04-13T13:08:11.722Z,3.20
2023-04-13T13:10:41.378Z,7.05
2023-04-13T13:13:08.716Z,6.75
2023-04-13T13:15:36.028Z,4.88
2023-04-13T13:18:04.341Z,6.50
2023-04-13T13:20:31.918Z,6.90
2023-04-13T13:22:59.221Z,5.72
2023-04-13T13:25:26.571Z,5.88
2023-04-13T13:28:13.265Z,5.25
2023-04-13T13:30:41.052Z,12.23
2023-04-13T13:33:08.483Z,9.18
2023-04-13T13:35:35.881Z,8.38
2023-04-13T13:38:03.347Z,5.03
2023-04-13T13:40:30.960Z,7.93
2023-04-13T13:42:59.576Z,6.95
2023-04-13T13:45:26.858Z,8.23
2023-04-13T13:47:54.666Z,6.20
2023-04-13T13:50:22.242Z,5.47
2023-04-13T13:53:02.503Z,8.70
2023-04-13T13:55:31.569Z,3.97
2023-04-13T13:58:00.271Z,6.00
2023-04-13T14:00:27.546Z,8.30
2023-04-13T14:02:54.930Z,8.52
2023-04-13T14:05:22.522Z,5.55
2023-04-13T14:07:50.914Z,6.85
2023-04-13T14:10:18.242Z,6.70
2023-04-13T14:12:49.649Z,9.35
2023-04-13T14:15:19.268Z,4.93
2023-04-13T14:17:55.568Z,8.95
2023-04-13T14:20:34.355Z,6.38
2023-04-13T14:23:01.651Z,5.85
2023-04-13T14:25:28.932Z,8.95
2023-04-13T14:27:56.340Z,10.65
2023-04-13T14:30:27.402Z,6.88
2023-04-13T14:32:56.114Z,6.47
2023-04-13T14:35:23.954Z,6.55
2023-04-13T14:37:51.266Z,6.38
2023-04-13T14:40:21.909Z,7.30
2023-04-13T14:42:50.632Z,5.80
2023-04-13T14:45:18.154Z,5.72
2023-04-13T14:47:46.830Z,6.95
2023-04-13T14:50:15.361Z,7.65
2023-04-13T14:52:44.134Z,5.43
2023-04-13T14:55:11.898Z,8.02
2023-04-13T14:57:39.237Z,9.00
2023-04-13T15:00:14.821Z,6.63
2023-04-13T15:02:42.599Z,4.88
2023-04-13T15:05:11.429Z,9.27
2023-04-13T15:07:38.788Z,6.03
2023-04-13T15:10:08.407Z,9.32
2023-04-13T15:12:36.322Z,6.07
2023-04-13T15:15:03.800Z,6.43
2023-04-13T15:17:31.469Z,5.05
2023-04-13T15:19:58.863Z,6.22
2023-04-13T15:22:27.527Z,5.13
2023-04-13T15:24:54.834Z,5.38
2023-04-13T15:27:22.145Z,7.32
2023-04-13T15:29:57.913Z,5.07
2023-04-13T15:32:25.347Z,6.30
2023-04-13T15:34:53.015Z,6.07
2023-04-13T15:37:20.424Z,7.50
2023-04-13T15:39:49.066Z,3.72
2023-04-13T15:42:16.392Z,3.45
2023-04-13T15:44:43.736Z,6.15
2023-04-13T15:47:11.051Z,6.45
2023-04-13T15:49:38.353Z,3.72
2023-04-13T15:52:05.671Z,4.00
2023-04-13T15:54:32.964Z,3.80
2023-04-13T15:57:02.770Z,9.40
2023-04-13T15:59:33.176Z,5.57
2023-04-13T16:02:00.930Z,4.82
2023-04-13T16:04:29.893Z,7.40
2023-04-13T16:07:12.018Z,5.90
2023-04-13T16:09:40.728Z,8.48
2023-04-13T16:12:10.816Z,7.05
2023-04-13T16:14:41.654Z,5.00
2023-04-13T16:17:09.416Z,10.52
2023-04-13T16:19:37.097Z,6.35
2023-04-13T16:22:06.276Z,5.30
2023-04-13T16:24:34.221Z,4.30
2023-04-13T16:27:02.141Z,7.90
2023-04-13T16:29:32.295Z,5.70
2023-04-13T16:31:59.582Z,5.88
2023-04-13T16:34:27.747Z,7.72
2023-04-13T16:36:56.010Z,5.30
2023-04-13T16:39:23.356Z,4.60
2023-04-13T16:41:50.814Z,4.78
2023-04-13T16:44:18.215Z,5.38
2023-04-13T16:46:46.986Z,5.07
2023-04-13T16:49:14.322Z,5.05
2023-04-13T16:51:41.692Z,7.47
2023-04-13T16:54:11.426Z,6.18
2023-04-13T16:56:38.705Z,9.90
2023-04-13T16:59:06.571Z,7.70
2023-04-13T17:01:35.646Z,5.13
2023-04-13T17:04:06.014Z,4.97
2023-04-13T17:06:35.342Z,7.85
2023-04-13T17:09:02.825Z,4.35
2023-04-13T17:11:30.223Z,3.30
2023-04-13T17:13:57.589Z,7.25
2023-04-13T17:16:28.941Z,6.70
2023-04-13T17:18:56.253Z,4.93
2023-04-13T17:21:24.941Z,8.60
2023-04-13T17:23:52.262Z,7.43
2023-04-13T17:26:19.569Z,5.88
2023-04-13T17:28:46.902Z,5.68
2023-04-13T17:31:14.321Z,6.22
2023-04-13T17:33:41.673Z,7.20
2023-04-13T17:36:08.982Z,6.97
2023-04-13T17:38:37.660Z,6.35
2023-04-13T17:41:06.463Z,4.28
2023-04-13T17:43:34.002Z,5.60
2023-04-13T17:46:02.662Z,6.43
2023-04-13T17:48:30.154Z,5.25
2023-04-13T17:50:57.493Z,3.67
2023-04-13T17:53:24.791Z,6.95
2023-04-13T17:55:53.556Z,5.88
2023-04-13T17:58:21.273Z,5.10
2023-04-13T18:00:48.596Z,5.97
2023-04-13T18:03:16.105Z,8.70
2023-04-13T18:05:45.287Z,7.28
2023-04-13T18:08:12.720Z,8.35
2023-04-13T18:10:40.045Z,7.68
2023-04-13T18:13:08.708Z,6.32
2023-04-13T18:15:36.071Z,7.40
2023-04-13T18:18:03.576Z,6.18
2023-04-13T18:20:31.011Z,6.63
2023-04-13T18:22:58.328Z,4.70
2023-04-13T18:25:25.747Z,6.18
2023-04-13T18:27:54.153Z,10.07
2023-04-13T18:30:23.074Z,5.32
2023-04-13T18:32:51.420Z,6.22
2023-04-13T18:35:18.940Z,4.20
2023-04-13T18:37:46.243Z,9.57
2023-04-13T18:40:13.807Z,8.30
2023-04-13T18:42:41.908Z,9.32
2023-04-13T18:45:09.625Z,9.13
2023-04-13T18:47:39.044Z,6.78
2023-04-13T18:50:07.481Z,8.98
2023-04-13T18:52:34.790Z,10.30
2023-04-13T18:55:02.101Z,7.18
2023-04-13T18:57:29.402Z,6.95
2023-04-13T18:59:57.597Z,9.38
2023-04-13T19:02:25.100Z,11.13
2023-04-13T19:04:54.015Z,13.77
2023-04-13T19:07:21.360Z,9.48
2023-04-13T19:09:48.717Z,11.45
2023-04-13T19:12:16.055Z,8.98
2023-04-13T19:14:43.411Z,9.23
2023-04-13T19:17:10.701Z,11.85
2023-04-13T19:19:38.083Z,10.15
2023-04-13T19:22:06.980Z,7.65
2023-04-13T19:24:34.293Z,14.48
2023-04-13T19:27:01.588Z,7.88
2023-04-13T19:29:30.144Z,10.05
2023-04-13T19:31:58.181Z,9.25
2023-04-13T19:34:25.592Z,8.43
2023-04-13T19:36:52.963Z,17.02
2023-04-13T19:39:21.646Z,9.18
2023-04-13T19:41:49.002Z,10.30
2023-04-13T19:44:16.781Z,16.13
2023-04-13T19:46:44.138Z,6.18
2023-04-13T19:49:11.853Z,9.25
2023-04-13T19:51:39.170Z,7.82
2023-04-13T19:54:06.753Z,9.57
2023-04-13T19:56:36.334Z,11.00
2023-04-13T19:59:04.460Z,11.18
2023-04-13T20:01:33.129Z,4.88
2023-04-13T20:04:01.054Z,5.25
2023-04-13T20:06:28.826Z,4.25
2023-04-13T20:08:56.192Z,8.50
2023-04-13T20:11:23.542Z,7.45
2023-04-13T20:13:52.201Z,6.22
2023-04-13T20:16:19.690Z,5.45
2023-04-13T20:18:47.085Z,7.15
2023-04-13T20:21:14.375Z,10.05
2023-04-13T20:23:41.675Z,6.00
2023-04-13T20:26:09.012Z,6.00
2023-04-13T20:28:36.308Z,6.65
2023-04-13T20:31:06.423Z,7.22
2023-04-13T20:33:33.802Z,10.20
2023-04-13T20:36:01.481Z,10.43
2023-04-13T20:38:29.843Z,9.95
2023-04-13T20:40:57.954Z,12.05
2023-04-13T20:43:25.300Z,8.00
2023-04-13T20:45:52.596Z,4.10
2023-04-13T20:50:55.965Z,6.05
2023-04-13T20:53:23.840Z,4.47
2023-04-13T20:55:51.408Z,6.35
2023-04-13T20:58:18.822Z,5.63
2023-04-13T21:00:46.173Z,7.32
2023-04-13T21:03:13.762Z,5.75
2023-04-13T21:05:42.493Z,5.70
2023-04-13T21:08:10.299Z,5.65
2023-04-13T21:10:37.581Z,6.28
2023-04-13T21:13:05.818Z,7.22
2023-04-13T21:15:33.084Z,3.67
2023-04-13T21:18:00.455Z,4.43
2023-04-13T21:20:27.852Z,6.60
2023-04-13T21:22:56.511Z,4.20
2023-04-13T21:25:23.905Z,4.72
2023-04-13T21:27:51.192Z,3.63
2023-04-13T21:30:18.497Z,6.93
2023-04-13T21:32:45.831Z,4.53
2023-04-13T21:35:15.048Z,3.58
2023-04-13T21:37:42.393Z,6.18
2023-04-13T21:40:11.585Z,7.18
2023-04-13T21:42:41.068Z,4.80
2023-04-13T21:45:09.024Z,5.82
2023-04-13T21:47:36.305Z,7.35
2023-04-13T21:50:03.672Z,4.90
2023-04-13T21:52:31.062Z,6.43
2023-04-13T21:54:59.597Z,6.28
2023-04-13T21:57:28.306Z,3.60
2023-04-13T21:59:56.286Z,5.85
2023-04-13T22:02:24.107Z,6.60
2023-04-13T22:04:51.531Z,4.10
2023-04-13T22:07:22.148Z,4.45
2023-04-13T22:09:57.602Z,6.28
2023-04-13T22:12:24.966Z,5.97
2023-04-13T22:14:55.218Z,5.32
2023-04-13T22:17:22.505Z,8.25
2023-04-13T22:19:49.817Z,7.85
2023-04-13T22:22:17.157Z,5.45
2023-04-13T22:24:44.450Z,5.97
2023-04-13T22:27:11.795Z,6.95
2023-04-13T22:29:39.052Z,9.70
2023-04-13T22:32:07.767Z,7.25
2023-04-13T22:34:35.304Z,8.10
2023-04-13T22:37:04.672Z,5.32
2023-04-13T22:39:32.363Z,6.53
2023-04-13T22:41:59.957Z,6.63
2023-04-13T22:44:32.581Z,4.20
2023-04-13T22:46:59.980Z,6.22
2023-04-13T22:49:30.394Z,5.18
2023-04-13T22:52:00.034Z,11.82
2023-04-13T22:54:27.308Z,10.50
2023-04-13T22:56:54.648Z,5.30
2023-04-13T22:59:21.943Z,4.28
2023-04-13T23:01:49.465Z,8.23
2023-04-13T23:04:16.955Z,4.88
2023-04-13T23:06:45.903Z,4.60
2023-04-13T23:09:13.200Z,5.47
2023-04-13T23:11:40.529Z,5.65
2023-04-13T23:14:07.933Z,3.60
2023-04-13T23:16:35.400Z,6.35
2023-04-13T23:19:03.000Z,7.43
2023-04-13T23:21:31.075Z,4.88
2023-04-13T23:23:59.752Z,5.63
2023-04-13T23:26:27.946Z,5.40
2023-04-13T23:28:55.300Z,6.38
2023-04-13T23:31:22.734Z,4.75
2023-04-13T23:33:50.267Z,7.40
2023-04-13T23:36:17.590Z,5.72
2023-04-13T23:38:44.984Z,6.38
2023-04-13T23:41:13.600Z,5.75
2023-04-13T23:43:40.905Z,5.78
2023-04-13T23:46:08.453Z,5.07
2023-04-13T23:48:35.805Z,6.50
2023-04-13T23:51:03.184Z,5.53
2023-04-13T23:53:30.584Z,6.25
2023-04-13T23:55:57.964Z,5.25
2023-04-13T23:58:26.635Z,6.50
